sensor_id;sensor_type;location;lat;lon;timestamp;temperature;humidity
19880;DHT22;10102;50.828;4.416;2023-01-06T00:00:33;12.70;99.90
19880;DHT22;10102;50.828;4.416;2023-01-06T00:02:59;12.80;99.90
19880;DHT22;10102;50.828;4.416;2023-01-06T00:05:26;12.70;99.90
19880;DHT22;10102;50.828;4.416;2023-01-06T00:07:53;12.70;99.90
19880;DHT22;10102;50.828;4.416;2023-01-06T00:10:20;12.70;99.90
19880;DHT22;10102;50.828;4.416;2023-01-06T00:12:47;12.80;99.90
19880;DHT22;10102;50.828;4.416;2023-01-06T00:15:14;12.70;99.90
19880;DHT22;10102;50.828;4.416;2023-01-06T00:17:40;12.80;99.90
19880;DHT22;10102;50.828;4.416;2023-01-06T00:20:06;12.70;99.90
19880;DHT22;10102;50.828;4.416;2023-01-06T00:22:32;12.70;99.90
19880;DHT22;10102;50.828;4.416;2023-01-06T00:24:58;12.80;99.90
19880;DHT22;10102;50.828;4.416;2023-01-06T00:27:25;12.80;99.90
19880;DHT22;10102;50.828;4.416;2023-01-06T00:29:50;12.90;99.90
19880;DHT22;10102;50.828;4.416;2023-01-06T00:32:17;12.70;99.90
19880;DHT22;10102;50.828;4.416;2023-01-06T00:34:43;12.70;99.90
19880;DHT22;10102;50.828;4.416;2023-01-06T00:37:09;12.80;99.90
19880;DHT22;10102;50.828;4.416;2023-01-06T00:39:35;12.80;99.90
19880;DHT22;10102;50.828;4.416;2023-01-06T00:42:01;12.90;99.90
19880;DHT22;10102;50.828;4.416;2023-01-06T00:44:31;12.90;99.90
19880;DHT22;10102;50.828;4.416;2023-01-06T00:46:57;12.80;99.90
19880;DHT22;10102;50.828;4.416;2023-01-06T00:49:22;12.80;99.90
19880;DHT22;10102;50.828;4.416;2023-01-06T00:51:48;12.70;99.90
19880;DHT22;10102;50.828;4.416;2023-01-06T00:54:14;12.70;99.90
19880;DHT22;10102;50.828;4.416;2023-01-06T00:56:43;12.80;99.90
19880;DHT22;10102;50.828;4.416;2023-01-06T00:59:10;12.80;99.90
19880;DHT22;10102;50.828;4.416;2023-01-06T01:01:36;13.80;99.90
19880;DHT22;10102;50.828;4.416;2023-01-06T01:04:03;12.70;99.90
19880;DHT22;10102;50.828;4.416;2023-01-06T01:06:28;12.80;99.90
19880;DHT22;10102;50.828;4.416;2023-01-06T01:08:57;12.60;99.90
19880;DHT22;10102;50.828;4.416;2023-01-06T01:11:27;12.60;99.90
19880;DHT22;10102;50.828;4.416;2023-01-06T01:14:12;12.50;99.90
19880;DHT22;10102;50.828;4.416;2023-01-06T01:16:38;12.40;99.90
19880;DHT22;10102;50.828;4.416;2023-01-06T01:19:07;12.40;99.90
19880;DHT22;10102;50.828;4.416;2023-01-06T01:21:33;12.40;99.90
19880;DHT22;10102;50.828;4.416;2023-01-06T01:23:58;12.20;99.90
19880;DHT22;10102;50.828;4.416;2023-01-06T01:26:24;12.50;99.90
19880;DHT22;10102;50.828;4.416;2023-01-06T01:28:51;12.40;99.90
19880;DHT22;10102;50.828;4.416;2023-01-06T01:31:17;12.50;99.90
19880;DHT22;10102;50.828;4.416;2023-01-06T01:33:42;12.70;99.90
19880;DHT22;10102;50.828;4.416;2023-01-06T01:36:10;12.70;99.90
19880;DHT22;10102;50.828;4.416;2023-01-06T01:38:36;12.60;99.90
19880;DHT22;10102;50.828;4.416;2023-01-06T01:41:03;12.60;99.90
19880;DHT22;10102;50.828;4.416;2023-01-06T01:43:47;12.50;99.90
19880;DHT22;10102;50.828;4.416;2023-01-06T01:46:17;12.40;99.90
19880;DHT22;10102;50.828;4.416;2023-01-06T01:48:44;12.50;99.90
19880;DHT22;10102;50.828;4.416;2023-01-06T01:51:12;12.40;99.90
19880;DHT22;10102;50.828;4.416;2023-01-06T01:53:46;12.40;99.90
19880;DHT22;10102;50.828;4.416;2023-01-06T01:56:16;12.30;99.90
19880;DHT22;10102;50.828;4.416;2023-01-06T01:59:02;12.50;99.90
19880;DHT22;10102;50.828;4.416;2023-01-06T02:01:29;12.50;99.90
19880;DHT22;10102;50.828;4.416;2023-01-06T02:03:55;12.50;99.90
19880;DHT22;10102;50.828;4.416;2023-01-06T02:06:22;12.50;99.90
19880;DHT22;10102;50.828;4.416;2023-01-06T02:11:17;12.40;99.90
19880;DHT22;10102;50.828;4.416;2023-01-06T02:13:44;12.40;99.90
19880;DHT22;10102;50.828;4.416;2023-01-06T02:52:11;12.30;99.90
19880;DHT22;10102;50.828;4.416;2023-01-06T02:57:16;12.30;99.90
19880;DHT22;10102;50.828;4.416;2023-01-06T02:59:55;12.40;99.90
19880;DHT22;10102;50.828;4.416;2023-01-06T03:02:25;12.30;99.90
19880;DHT22;10102;50.828;4.416;2023-01-06T03:04:54;12.20;99.90
19880;DHT22;10102;50.828;4.416;2023-01-06T03:07:22;12.30;99.90
19880;DHT22;10102;50.828;4.416;2023-01-06T03:09:50;12.20;99.90
19880;DHT22;10102;50.828;4.416;2023-01-06T03:12:46;12.20;99.90
19880;DHT22;10102;50.828;4.416;2023-01-06T03:15:09;12.20;99.90
19880;DHT22;10102;50.828;4.416;2023-01-06T03:17:35;12.30;99.90
19880;DHT22;10102;50.828;4.416;2023-01-06T03:20:01;12.20;99.90
19880;DHT22;10102;50.828;4.416;2023-01-06T03:22:27;12.20;99.90
19880;DHT22;10102;50.828;4.416;2023-01-06T03:24:53;12.20;99.90
19880;DHT22;10102;50.828;4.416;2023-01-06T03:27:22;12.20;99.90
19880;DHT22;10102;50.828;4.416;2023-01-06T03:29:50;12.20;99.90
19880;DHT22;10102;50.828;4.416;2023-01-06T03:32:25;12.20;99.90
19880;DHT22;10102;50.828;4.416;2023-01-06T03:38:11;12.20;99.90
19880;DHT22;10102;50.828;4.416;2023-01-06T03:40:52;12.20;99.90
19880;DHT22;10102;50.828;4.416;2023-01-06T03:43:51;12.20;99.90
19880;DHT22;10102;50.828;4.416;2023-01-06T03:46:37;12.40;99.90
19880;DHT22;10102;50.828;4.416;2023-01-06T03:49:18;12.20;99.90
19880;DHT22;10102;50.828;4.416;2023-01-06T03:52:11;12.10;99.90
19880;DHT22;10102;50.828;4.416;2023-01-06T03:55:02;12.00;99.90
19880;DHT22;10102;50.828;4.416;2023-01-06T03:57:34;12.10;99.90
19880;DHT22;10102;50.828;4.416;2023-01-06T04:00:08;12.00;99.90
19880;DHT22;10102;50.828;4.416;2023-01-06T04:02:37;12.00;99.90
19880;DHT22;10102;50.828;4.416;2023-01-06T04:07:40;12.00;99.90
19880;DHT22;10102;50.828;4.416;2023-01-06T04:10:07;12.00;99.90
19880;DHT22;10102;50.828;4.416;2023-01-06T04:12:33;12.00;99.90
19880;DHT22;10102;50.828;4.416;2023-01-06T04:15:06;12.00;99.90
19880;DHT22;10102;50.828;4.416;2023-01-06T04:17:32;12.00;99.90
19880;DHT22;10102;50.828;4.416;2023-01-06T04:19:58;11.90;99.90
19880;DHT22;10102;50.828;4.416;2023-01-06T04:22:24;11.90;99.90
19880;DHT22;10102;50.828;4.416;2023-01-06T04:24:49;12.20;99.90
19880;DHT22;10102;50.828;4.416;2023-01-06T04:27:15;12.00;99.90
19880;DHT22;10102;50.828;4.416;2023-01-06T04:29:41;12.00;99.90
19880;DHT22;10102;50.828;4.416;2023-01-06T04:32:07;11.90;99.90
19880;DHT22;10102;50.828;4.416;2023-01-06T04:34:32;12.00;99.90
19880;DHT22;10102;50.828;4.416;2023-01-06T04:36:58;12.00;99.90
19880;DHT22;10102;50.828;4.416;2023-01-06T04:39:23;11.90;99.90
19880;DHT22;10102;50.828;4.416;2023-01-06T04:41:49;11.90;99.90
19880;DHT22;10102;50.828;4.416;2023-01-06T04:44:15;11.90;99.90
19880;DHT22;10102;50.828;4.416;2023-01-06T04:46:41;11.90;99.90
19880;DHT22;10102;50.828;4.416;2023-01-06T04:49:07;12.00;99.90
19880;DHT22;10102;50.828;4.416;2023-01-06T04:51:33;12.10;99.90
19880;DHT22;10102;50.828;4.416;2023-01-06T04:53:59;12.10;99.90
19880;DHT22;10102;50.828;4.416;2023-01-06T04:56:24;11.90;99.90
19880;DHT22;10102;50.828;4.416;2023-01-06T04:58:54;11.90;99.90
19880;DHT22;10102;50.828;4.416;2023-01-06T05:01:20;11.90;99.90
19880;DHT22;10102;50.828;4.416;2023-01-06T05:03:47;11.90;99.90
19880;DHT22;10102;50.828;4.416;2023-01-06T05:06:13;11.90;99.90
19880;DHT22;10102;50.828;4.416;2023-01-06T05:08:40;11.90;99.90
19880;DHT22;10102;50.828;4.416;2023-01-06T05:13:37;11.90;99.90
19880;DHT22;10102;50.828;4.416;2023-01-06T05:16:08;11.90;99.90
19880;DHT22;10102;50.828;4.416;2023-01-06T05:18:34;12.20;99.90
19880;DHT22;10102;50.828;4.416;2023-01-06T05:20:59;12.00;99.90
19880;DHT22;10102;50.828;4.416;2023-01-06T05:23:25;12.10;99.90
19880;DHT22;10102;50.828;4.416;2023-01-06T05:25:51;12.20;99.90
19880;DHT22;10102;50.828;4.416;2023-01-06T05:28:17;12.10;99.90
19880;DHT22;10102;50.828;4.416;2023-01-06T05:30:43;12.10;99.90
19880;DHT22;10102;50.828;4.416;2023-01-06T05:33:10;12.10;99.90
19880;DHT22;10102;50.828;4.416;2023-01-06T05:35:36;12.00;99.90
19880;DHT22;10102;50.828;4.416;2023-01-06T05:38:01;12.10;99.90
19880;DHT22;10102;50.828;4.416;2023-01-06T05:40:27;12.10;99.90
19880;DHT22;10102;50.828;4.416;2023-01-06T05:42:54;12.10;99.90
19880;DHT22;10102;50.828;4.416;2023-01-06T05:45:21;12.20;99.90
19880;DHT22;10102;50.828;4.416;2023-01-06T05:47:47;12.30;99.90
19880;DHT22;10102;50.828;4.416;2023-01-06T05:50:13;12.20;99.90
19880;DHT22;10102;50.828;4.416;2023-01-06T05:52:38;12.30;99.90
19880;DHT22;10102;50.828;4.416;2023-01-06T05:55:05;12.30;99.90
19880;DHT22;10102;50.828;4.416;2023-01-06T05:57:32;12.20;99.90
19880;DHT22;10102;50.828;4.416;2023-01-06T05:59:58;12.20;99.90
19880;DHT22;10102;50.828;4.416;2023-01-06T06:02:24;12.10;99.90
19880;DHT22;10102;50.828;4.416;2023-01-06T06:04:49;12.20;99.90
19880;DHT22;10102;50.828;4.416;2023-01-06T06:07:15;12.20;99.90
19880;DHT22;10102;50.828;4.416;2023-01-06T06:09:41;12.20;99.90
19880;DHT22;10102;50.828;4.416;2023-01-06T06:12:07;12.20;99.90
19880;DHT22;10102;50.828;4.416;2023-01-06T06:14:33;12.20;99.90
19880;DHT22;10102;50.828;4.416;2023-01-06T06:16:58;12.30;99.90
19880;DHT22;10102;50.828;4.416;2023-01-06T06:19:24;12.40;99.90
19880;DHT22;10102;50.828;4.416;2023-01-06T06:21:51;12.40;99.90
19880;DHT22;10102;50.828;4.416;2023-01-06T06:24:17;12.40;99.90
19880;DHT22;10102;50.828;4.416;2023-01-06T06:26:42;12.30;99.90
19880;DHT22;10102;50.828;4.416;2023-01-06T06:29:08;12.30;99.90
19880;DHT22;10102;50.828;4.416;2023-01-06T06:31:34;12.40;99.90
19880;DHT22;10102;50.828;4.416;2023-01-06T06:34:01;12.30;99.90
19880;DHT22;10102;50.828;4.416;2023-01-06T06:36:28;12.30;99.90
19880;DHT22;10102;50.828;4.416;2023-01-06T06:38:54;12.30;99.90
19880;DHT22;10102;50.828;4.416;2023-01-06T06:41:23;12.20;99.90
19880;DHT22;10102;50.828;4.416;2023-01-06T06:43:50;12.30;99.90
19880;DHT22;10102;50.828;4.416;2023-01-06T06:46:17;12.20;99.90
19880;DHT22;10102;50.828;4.416;2023-01-06T06:48:43;12.30;99.90
19880;DHT22;10102;50.828;4.416;2023-01-06T06:51:14;12.40;99.90
19880;DHT22;10102;50.828;4.416;2023-01-06T06:53:43;12.60;99.90
19880;DHT22;10102;50.828;4.416;2023-01-06T06:56:12;12.40;99.90
19880;DHT22;10102;50.828;4.416;2023-01-06T06:58:38;12.40;99.90
19880;DHT22;10102;50.828;4.416;2023-01-06T07:01:08;12.30;99.90
19880;DHT22;10102;50.828;4.416;2023-01-06T07:03:34;12.40;99.90
19880;DHT22;10102;50.828;4.416;2023-01-06T07:06:01;12.50;99.90
19880;DHT22;10102;50.828;4.416;2023-01-06T07:08:28;12.50;99.90
19880;DHT22;10102;50.828;4.416;2023-01-06T07:10:54;12.40;99.90
19880;DHT22;10102;50.828;4.416;2023-01-06T07:13:20;12.40;99.90
19880;DHT22;10102;50.828;4.416;2023-01-06T07:15:46;12.40;99.90
19880;DHT22;10102;50.828;4.416;2023-01-06T07:18:14;12.30;99.90
19880;DHT22;10102;50.828;4.416;2023-01-06T07:20:46;12.30;99.90
19880;DHT22;10102;50.828;4.416;2023-01-06T07:23:13;12.30;99.90
19880;DHT22;10102;50.828;4.416;2023-01-06T07:25:38;12.30;99.90
19880;DHT22;10102;50.828;4.416;2023-01-06T07:28:04;12.40;99.90
19880;DHT22;10102;50.828;4.416;2023-01-06T07:30:32;12.40;99.90
19880;DHT22;10102;50.828;4.416;2023-01-06T07:32:58;12.40;99.90
19880;DHT22;10102;50.828;4.416;2023-01-06T07:35:24;12.40;99.90
19880;DHT22;10102;50.828;4.416;2023-01-06T07:38:02;12.30;99.90
19880;DHT22;10102;50.828;4.416;2023-01-06T07:40:28;12.10;99.90
19880;DHT22;10102;50.828;4.416;2023-01-06T07:42:54;12.20;99.90
19880;DHT22;10102;50.828;4.416;2023-01-06T07:45:20;12.30;99.90
19880;DHT22;10102;50.828;4.416;2023-01-06T07:47:45;12.30;99.90
19880;DHT22;10102;50.828;4.416;2023-01-06T07:50:11;12.20;99.90
19880;DHT22;10102;50.828;4.416;2023-01-06T07:52:37;12.20;99.90
19880;DHT22;10102;50.828;4.416;2023-01-06T07:55:02;12.20;99.90
19880;DHT22;10102;50.828;4.416;2023-01-06T07:57:29;12.20;99.90
19880;DHT22;10102;50.828;4.416;2023-01-06T07:59:56;12.20;99.90
19880;DHT22;10102;50.828;4.416;2023-01-06T08:04:49;12.40;99.90
19880;DHT22;10102;50.828;4.416;2023-01-06T08:07:15;12.40;99.90
19880;DHT22;10102;50.828;4.416;2023-01-06T08:09:41;12.20;99.90
19880;DHT22;10102;50.828;4.416;2023-01-06T08:12:10;12.30;99.90
19880;DHT22;10102;50.828;4.416;2023-01-06T08:14:36;12.20;99.90
19880;DHT22;10102;50.828;4.416;2023-01-06T08:17:02;12.20;99.90
19880;DHT22;10102;50.828;4.416;2023-01-06T08:19:28;12.20;99.90
19880;DHT22;10102;50.828;4.416;2023-01-06T08:21:53;12.20;99.90
19880;DHT22;10102;50.828;4.416;2023-01-06T08:24:19;12.10;99.90
19880;DHT22;10102;50.828;4.416;2023-01-06T08:26:51;12.00;99.90
19880;DHT22;10102;50.828;4.416;2023-01-06T08:29:16;12.20;99.90
19880;DHT22;10102;50.828;4.416;2023-01-06T08:31:43;12.20;99.90
19880;DHT22;10102;50.828;4.416;2023-01-06T08:34:09;12.20;99.90
19880;DHT22;10102;50.828;4.416;2023-01-06T08:36:35;12.10;99.90
19880;DHT22;10102;50.828;4.416;2023-01-06T08:39:02;12.10;99.90
19880;DHT22;10102;50.828;4.416;2023-01-06T08:41:27;12.20;99.90
19880;DHT22;10102;50.828;4.416;2023-01-06T08:43:54;12.30;99.90
19880;DHT22;10102;50.828;4.416;2023-01-06T08:46:19;12.40;99.90
19880;DHT22;10102;50.828;4.416;2023-01-06T08:48:46;12.40;99.90
19880;DHT22;10102;50.828;4.416;2023-01-06T08:51:17;12.40;99.90
19880;DHT22;10102;50.828;4.416;2023-01-06T08:53:43;12.50;99.90
19880;DHT22;10102;50.828;4.416;2023-01-06T08:56:21;12.50;99.90
19880;DHT22;10102;50.828;4.416;2023-01-06T08:58:54;12.50;99.90
19880;DHT22;10102;50.828;4.416;2023-01-06T09:01:24;12.30;99.90
19880;DHT22;10102;50.828;4.416;2023-01-06T09:03:50;12.30;99.90
19880;DHT22;10102;50.828;4.416;2023-01-06T09:06:16;12.30;99.90
19880;DHT22;10102;50.828;4.416;2023-01-06T09:08:42;12.30;99.90
19880;DHT22;10102;50.828;4.416;2023-01-06T09:11:10;12.20;99.90
19880;DHT22;10102;50.828;4.416;2023-01-06T09:13:37;12.40;99.90
19880;DHT22;10102;50.828;4.416;2023-01-06T09:16:06;12.40;99.90
19880;DHT22;10102;50.828;4.416;2023-01-06T09:18:33;12.40;99.90
19880;DHT22;10102;50.828;4.416;2023-01-06T09:20:58;12.40;99.90
19880;DHT22;10102;50.828;4.416;2023-01-06T09:23:24;12.30;99.90
19880;DHT22;10102;50.828;4.416;2023-01-06T09:25:50;12.20;99.90
19880;DHT22;10102;50.828;4.416;2023-01-06T09:28:15;12.20;99.90
19880;DHT22;10102;50.828;4.416;2023-01-06T09:30:41;12.30;99.90
19880;DHT22;10102;50.828;4.416;2023-01-06T09:33:07;12.30;99.90
19880;DHT22;10102;50.828;4.416;2023-01-06T09:35:32;12.30;99.90
19880;DHT22;10102;50.828;4.416;2023-01-06T09:37:58;12.40;99.90
19880;DHT22;10102;50.828;4.416;2023-01-06T09:44:09;12.10;99.90
19880;DHT22;10102;50.828;4.416;2023-01-06T09:46:34;12.20;99.90
19880;DHT22;10102;50.828;4.416;2023-01-06T09:49:08;12.20;99.90
19880;DHT22;10102;50.828;4.416;2023-01-06T09:51:38;12.10;99.90
19880;DHT22;10102;50.828;4.416;2023-01-06T09:54:31;12.00;99.90
19880;DHT22;10102;50.828;4.416;2023-01-06T09:57:05;12.10;99.90
19880;DHT22;10102;50.828;4.416;2023-01-06T09:59:47;12.10;99.90
19880;DHT22;10102;50.828;4.416;2023-01-06T10:02:23;12.20;99.90
19880;DHT22;10102;50.828;4.416;2023-01-06T10:04:51;12.20;99.90
19880;DHT22;10102;50.828;4.416;2023-01-06T10:07:23;12.20;99.90
19880;DHT22;10102;50.828;4.416;2023-01-06T10:10:12;11.90;99.90
19880;DHT22;10102;50.828;4.416;2023-01-06T10:20:56;12.30;99.90
19880;DHT22;10102;50.828;4.416;2023-01-06T10:26:31;12.30;99.90
19880;DHT22;10102;50.828;4.416;2023-01-06T10:29:07;12.30;99.90
19880;DHT22;10102;50.828;4.416;2023-01-06T10:31:37;12.40;99.90
19880;DHT22;10102;50.828;4.416;2023-01-06T10:34:15;12.40;99.90
19880;DHT22;10102;50.828;4.416;2023-01-06T10:36:44;12.40;99.90
19880;DHT22;10102;50.828;4.416;2023-01-06T10:39:22;12.40;99.90
19880;DHT22;10102;50.828;4.416;2023-01-06T10:44:54;12.40;99.90
19880;DHT22;10102;50.828;4.416;2023-01-06T10:47:30;12.50;99.90
19880;DHT22;10102;50.828;4.416;2023-01-06T10:49:58;12.50;99.90
19880;DHT22;10102;50.828;4.416;2023-01-06T10:52:26;12.40;99.90
19880;DHT22;10102;50.828;4.416;2023-01-06T10:54:55;12.50;99.90
19880;DHT22;10102;50.828;4.416;2023-01-06T10:57:25;12.60;99.90
19880;DHT22;10102;50.828;4.416;2023-01-06T11:00:15;12.60;99.90
19880;DHT22;10102;50.828;4.416;2023-01-06T11:02:43;12.60;99.90
19880;DHT22;10102;50.828;4.416;2023-01-06T11:05:26;12.60;99.90
19880;DHT22;10102;50.828;4.416;2023-01-06T11:08:09;12.70;99.90
19880;DHT22;10102;50.828;4.416;2023-01-06T11:10:43;12.70;99.90
19880;DHT22;10102;50.828;4.416;2023-01-06T11:13:29;12.80;99.90
19880;DHT22;10102;50.828;4.416;2023-01-06T11:15:57;12.70;99.90
19880;DHT22;10102;50.828;4.416;2023-01-06T11:18:35;12.60;99.90
19880;DHT22;10102;50.828;4.416;2023-01-06T11:21:13;12.60;99.90
19880;DHT22;10102;50.828;4.416;2023-01-06T11:23:42;12.60;99.90
19880;DHT22;10102;50.828;4.416;2023-01-06T11:28:47;12.60;99.90
19880;DHT22;10102;50.828;4.416;2023-01-06T11:33:54;12.50;99.90
19880;DHT22;10102;50.828;4.416;2023-01-06T11:36:23;12.30;99.90
19880;DHT22;10102;50.828;4.416;2023-01-06T11:41:38;12.30;99.90
19880;DHT22;10102;50.828;4.416;2023-01-06T11:44:18;12.30;99.90
19880;DHT22;10102;50.828;4.416;2023-01-06T11:46:50;12.30;99.90
19880;DHT22;10102;50.828;4.416;2023-01-06T11:49:24;12.40;99.90
19880;DHT22;10102;50.828;4.416;2023-01-06T11:51:58;12.50;99.90
19880;DHT22;10102;50.828;4.416;2023-01-06T12:05:34;12.80;99.90
19880;DHT22;10102;50.828;4.416;2023-01-06T12:10:42;12.70;99.90
19880;DHT22;10102;50.828;4.416;2023-01-06T12:13:13;12.40;99.90
19880;DHT22;10102;50.828;4.416;2023-01-06T12:15:40;12.80;99.90
19880;DHT22;10102;50.828;4.416;2023-01-06T12:18:17;12.80;99.90
19880;DHT22;10102;50.828;4.416;2023-01-06T12:20:47;12.90;99.90
19880;DHT22;10102;50.828;4.416;2023-01-06T12:23:22;12.90;99.90
19880;DHT22;10102;50.828;4.416;2023-01-06T12:25:51;12.90;99.90
19880;DHT22;10102;50.828;4.416;2023-01-06T12:28:24;12.90;99.90
19880;DHT22;10102;50.828;4.416;2023-01-06T12:31:14;13.00;99.90
19880;DHT22;10102;50.828;4.416;2023-01-06T12:34:02;12.90;99.90
19880;DHT22;10102;50.828;4.416;2023-01-06T12:39:58;12.80;99.90
19880;DHT22;10102;50.828;4.416;2023-01-06T12:42:43;13.00;99.90
19880;DHT22;10102;50.828;4.416;2023-01-06T12:45:16;13.00;99.90
19880;DHT22;10102;50.828;4.416;2023-01-06T12:47:47;12.90;99.90
19880;DHT22;10102;50.828;4.416;2023-01-06T12:50:34;12.90;99.90
19880;DHT22;10102;50.828;4.416;2023-01-06T12:53:22;13.00;99.90
19880;DHT22;10102;50.828;4.416;2023-01-06T13:01:38;13.30;99.90
19880;DHT22;10102;50.828;4.416;2023-01-06T13:12:24;13.30;99.90
19880;DHT22;10102;50.828;4.416;2023-01-06T13:15:20;13.20;99.90
19880;DHT22;10102;50.828;4.416;2023-01-06T13:18:50;13.10;99.90
19880;DHT22;10102;50.828;4.416;2023-01-06T13:37:36;13.50;99.90
19880;DHT22;10102;50.828;4.416;2023-01-06T13:42:38;13.60;99.90
19880;DHT22;10102;50.828;4.416;2023-01-06T13:45:16;13.50;99.90
19880;DHT22;10102;50.828;4.416;2023-01-06T13:47:46;13.60;99.90
19880;DHT22;10102;50.828;4.416;2023-01-06T13:50:15;13.60;99.90
19880;DHT22;10102;50.828;4.416;2023-01-06T13:52:42;13.60;99.90
19880;DHT22;10102;50.828;4.416;2023-01-06T13:55:27;13.60;99.90
19880;DHT22;10102;50.828;4.416;2023-01-06T13:57:55;13.70;99.90
19880;DHT22;10102;50.828;4.416;2023-01-06T14:00:23;13.80;99.90
19880;DHT22;10102;50.828;4.416;2023-01-06T14:08:03;13.70;99.90
19880;DHT22;10102;50.828;4.416;2023-01-06T14:13:01;13.60;99.90
19880;DHT22;10102;50.828;4.416;2023-01-06T14:15:30;13.50;99.90
19880;DHT22;10102;50.828;4.416;2023-01-06T14:17:57;13.60;99.90
19880;DHT22;10102;50.828;4.416;2023-01-06T14:20:33;13.60;99.90
19880;DHT22;10102;50.828;4.416;2023-01-06T14:23:06;13.50;99.90
19880;DHT22;10102;50.828;4.416;2023-01-06T14:25:42;13.60;99.90
19880;DHT22;10102;50.828;4.416;2023-01-06T14:30:46;13.70;99.90
19880;DHT22;10102;50.828;4.416;2023-01-06T14:36:11;13.60;99.90
19880;DHT22;10102;50.828;4.416;2023-01-06T14:41:21;13.60;99.90
19880;DHT22;10102;50.828;4.416;2023-01-06T14:43:54;13.60;99.90
19880;DHT22;10102;50.828;4.416;2023-01-06T14:46:42;13.50;99.90
19880;DHT22;10102;50.828;4.416;2023-01-06T14:49:25;13.60;99.90
19880;DHT22;10102;50.828;4.416;2023-01-06T14:51:54;13.60;99.90
19880;DHT22;10102;50.828;4.416;2023-01-06T14:54:35;13.50;99.90
19880;DHT22;10102;50.828;4.416;2023-01-06T14:57:01;13.40;99.90
19880;DHT22;10102;50.828;4.416;2023-01-06T14:59:30;13.40;99.90
19880;DHT22;10102;50.828;4.416;2023-01-06T15:02:12;13.20;99.90
19880;DHT22;10102;50.828;4.416;2023-01-06T15:04:41;13.30;99.90
19880;DHT22;10102;50.828;4.416;2023-01-06T15:07:19;13.20;99.90
19880;DHT22;10102;50.828;4.416;2023-01-06T15:09:47;13.40;99.90
19880;DHT22;10102;50.828;4.416;2023-01-06T15:12:25;13.30;99.90
19880;DHT22;10102;50.828;4.416;2023-01-06T15:14:53;13.40;99.90
19880;DHT22;10102;50.828;4.416;2023-01-06T15:17:19;13.30;99.90
19880;DHT22;10102;50.828;4.416;2023-01-06T15:19:47;13.30;99.90
19880;DHT22;10102;50.828;4.416;2023-01-06T15:22:23;12.80;99.90
19880;DHT22;10102;50.828;4.416;2023-01-06T15:24:50;13.30;99.90
19880;DHT22;10102;50.828;4.416;2023-01-06T15:27:17;13.40;99.90
19880;DHT22;10102;50.828;4.416;2023-01-06T15:29:55;13.40;99.90
19880;DHT22;10102;50.828;4.416;2023-01-06T15:32:24;13.20;99.90
19880;DHT22;10102;50.828;4.416;2023-01-06T15:34:50;13.30;99.90
19880;DHT22;10102;50.828;4.416;2023-01-06T15:37:23;13.30;99.90
19880;DHT22;10102;50.828;4.416;2023-01-06T15:39:50;13.30;99.90
19880;DHT22;10102;50.828;4.416;2023-01-06T15:42:21;13.20;99.90
19880;DHT22;10102;50.828;4.416;2023-01-06T15:44:58;13.30;99.90
19880;DHT22;10102;50.828;4.416;2023-01-06T15:47:35;13.20;99.90
19880;DHT22;10102;50.828;4.416;2023-01-06T15:50:05;13.20;99.90
19880;DHT22;10102;50.828;4.416;2023-01-06T15:52:35;13.20;99.90
19880;DHT22;10102;50.828;4.416;2023-01-06T15:55:05;13.20;99.90
19880;DHT22;10102;50.828;4.416;2023-01-06T15:57:37;13.30;99.90
19880;DHT22;10102;50.828;4.416;2023-01-06T16:00:22;13.20;99.90
19880;DHT22;10102;50.828;4.416;2023-01-06T16:02:50;13.10;99.90
19880;DHT22;10102;50.828;4.416;2023-01-06T16:08:03;13.00;99.90
19880;DHT22;10102;50.828;4.416;2023-01-06T16:10:38;13.10;99.90
19880;DHT22;10102;50.828;4.416;2023-01-06T16:15:33;13.00;99.90
19880;DHT22;10102;50.828;4.416;2023-01-06T16:17:59;13.00;99.90
19880;DHT22;10102;50.828;4.416;2023-01-06T16:20:26;13.00;99.90
19880;DHT22;10102;50.828;4.416;2023-01-06T16:22:53;13.10;99.90
19880;DHT22;10102;50.828;4.416;2023-01-06T16:27:50;13.10;99.90
19880;DHT22;10102;50.828;4.416;2023-01-06T16:30:21;13.20;99.90
19880;DHT22;10102;50.828;4.416;2023-01-06T16:32:47;13.10;99.90
19880;DHT22;10102;50.828;4.416;2023-01-06T16:35:21;13.00;99.90
19880;DHT22;10102;50.828;4.416;2023-01-06T16:37:48;13.10;99.90
19880;DHT22;10102;50.828;4.416;2023-01-06T16:40:15;13.10;99.90
19880;DHT22;10102;50.828;4.416;2023-01-06T16:42:41;13.10;99.90
19880;DHT22;10102;50.828;4.416;2023-01-06T16:45:15;13.00;99.90
19880;DHT22;10102;50.828;4.416;2023-01-06T16:47:42;13.00;99.90
19880;DHT22;10102;50.828;4.416;2023-01-06T16:55:35;12.90;99.90
19880;DHT22;10102;50.828;4.416;2023-01-06T16:58:10;12.80;99.90
19880;DHT22;10102;50.828;4.416;2023-01-06T17:00:39;12.90;99.90
19880;DHT22;10102;50.828;4.416;2023-01-06T17:03:12;12.80;99.90
19880;DHT22;10102;50.828;4.416;2023-01-06T17:05:38;12.80;99.90
19880;DHT22;10102;50.828;4.416;2023-01-06T17:08:10;12.80;99.90
19880;DHT22;10102;50.828;4.416;2023-01-06T17:10:35;12.80;99.90
19880;DHT22;10102;50.828;4.416;2023-01-06T17:13:03;12.80;99.90
19880;DHT22;10102;50.828;4.416;2023-01-06T17:15:57;12.70;99.90
19880;DHT22;10102;50.828;4.416;2023-01-06T17:18:28;12.70;99.90
19880;DHT22;10102;50.828;4.416;2023-01-06T17:24:11;12.70;99.90
19880;DHT22;10102;50.828;4.416;2023-01-06T17:26:39;12.80;99.90
19880;DHT22;10102;50.828;4.416;2023-01-06T17:29:14;12.80;99.90
19880;DHT22;10102;50.828;4.416;2023-01-06T17:31:44;12.80;99.90
19880;DHT22;10102;50.828;4.416;2023-01-06T17:34:16;12.80;99.90
19880;DHT22;10102;50.828;4.416;2023-01-06T17:36:44;12.80;99.90
19880;DHT22;10102;50.828;4.416;2023-01-06T17:39:25;12.70;99.90
19880;DHT22;10102;50.828;4.416;2023-01-06T17:44:35;12.60;99.90
19880;DHT22;10102;50.828;4.416;2023-01-06T17:47:06;12.80;99.90
19880;DHT22;10102;50.828;4.416;2023-01-06T17:49:35;12.60;99.90
19880;DHT22;10102;50.828;4.416;2023-01-06T17:54:56;12.60;99.90
19880;DHT22;10102;50.828;4.416;2023-01-06T17:57:58;12.70;99.90
19880;DHT22;10102;50.828;4.416;2023-01-06T18:00:32;12.50;99.90
19880;DHT22;10102;50.828;4.416;2023-01-06T18:03:01;12.50;99.90
19880;DHT22;10102;50.828;4.416;2023-01-06T18:10:37;12.40;99.90
19880;DHT22;10102;50.828;4.416;2023-01-06T18:13:23;12.40;99.90
19880;DHT22;10102;50.828;4.416;2023-01-06T18:15:56;12.40;99.90
19880;DHT22;10102;50.828;4.416;2023-01-06T18:18:39;12.50;99.90
19880;DHT22;10102;50.828;4.416;2023-01-06T18:23:49;12.40;99.90
19880;DHT22;10102;50.828;4.416;2023-01-06T18:29:01;12.50;99.90
19880;DHT22;10102;50.828;4.416;2023-01-06T18:31:34;12.40;99.90
19880;DHT22;10102;50.828;4.416;2023-01-06T18:34:07;12.40;99.90
19880;DHT22;10102;50.828;4.416;2023-01-06T18:36:45;12.40;99.90
19880;DHT22;10102;50.828;4.416;2023-01-06T18:39:12;12.40;99.90
19880;DHT22;10102;50.828;4.416;2023-01-06T18:41:37;12.40;99.90
19880;DHT22;10102;50.828;4.416;2023-01-06T18:44:18;12.10;99.90